Elida, Ohio
Current Conditions -  °F | °C
As of 6:53 PM on Wednesday 22 Oct 2014 (Local Time) from KAOH Reporting Station
Overcast Overcast  
Wind Chill: 48°   Ceiling: 2100
Heat Index: 48°   Visibility: 10mi
Dew Point: 40°   Wind: 3mph
Humidity: 74%   Direction: 340°NNW
Pressure: 30.28"   Gusts: NA
Location:  40.8051°N, 84.1755°W
Report Text: KAOH 222253Z AUTO 34003KT 10SM OVC021 09/04 A3028 RMK AO2 SLP259 T00890044
Loading
Personal Weather Stations






























Interactive Weather Map
Tropical Storm Tracking
New forecast layout! Learn more

10-Day Weather Forecast

Advertisements
Track Severe Weather on mobile